Time;durP1;ratioP1;P1;durP2;ratioP2;P2;SDS_P1;SDS_P2;PMS_P1;PMS_P2;Temp;Humidity;BMP_temperature;BMP_pressure;BME280_temperature;BME280_humidity;BME280_pressure;Samples;Min_cycle;Max_cycle;Signal;HPM_P1;HPM_P2
2022/01/02 00:01:50;;;;;;;11.27;9.77;;;;;;;13.11;61.20;95286.63;5086112;28;20431;-78
2022/01/02 00:04:18;;;;;;;11.47;10.37;;;;;;;13.22;61.45;95299.22;5085891;28;20431;-78
2022/01/02 00:06:52;;;;;;;11.10;9.50;;;;;;;13.36;61.06;95290.44;5085652;28;20422;-77
2022/01/02 00:09:31;;;;;;;10.93;9.83;;;;;;;13.40;59.77;95298.75;5068008;28;20428;-78
2022/01/02 00:12:10;;;;;;;10.47;9.37;;;;;;;13.66;60.26;95298.03;5067539;28;20463;-77
2022/01/02 00:14:38;;;;;;;11.23;9.83;;;;;;;13.82;59.32;95308.19;5085273;28;20853;-78
2022/01/02 00:17:06;;;;;;;10.70;9.70;;;;;;;13.70;59.85;95298.44;5085359;28;20439;-77
2022/01/02 00:19:34;;;;;;;11.40;10.20;;;;;;;13.86;59.74;95298.91;5085977;28;20430;-78
2022/01/02 00:22:03;;;;;;;11.60;9.90;;;;;;;13.15;61.26;95299.19;5068130;28;20412;-78
2022/01/02 00:24:31;;;;;;;13.33;10.00;;;;;;;13.41;60.08;95305.59;5085957;28;20416;-78
2022/01/02 00:26:59;;;;;;;10.63;9.60;;;;;;;13.43;60.68;95303.59;5084681;28;20423;-77
2022/01/02 00:29:25;;;;;;;10.73;9.63;;;;;;;13.45;60.17;95302.41;5067677;28;20432;-77
2022/01/02 00:31:53;;;;;;;11.07;9.97;;;;;;;13.62;59.35;95297.63;5085343;28;20504;-78
2022/01/02 00:34:19;;;;;;;10.23;9.10;;;;;;;13.20;60.67;95303.84;5085684;28;20434;-77
2022/01/02 00:36:44;;;;;;;11.07;9.90;;;;;;;13.56;60.30;95297.59;5084955;28;20439;-78
2022/01/02 00:39:10;;;;;;;10.00;9.10;;;;;;;13.68;59.97;95303.91;5099321;28;20199;-77
2022/01/02 00:41:48;;;;;;;10.57;9.40;;;;;;;13.57;59.69;95294.75;5106972;28;20177;-77
2022/01/02 00:44:35;;;;;;;11.00;9.47;;;;;;;13.16;61.50;95305.25;5091667;28;20635;-77
2022/01/02 00:47:29;;;;;;;9.60;8.57;;;;;;;12.86;62.21;95293.16;5091194;28;20407;-77
2022/01/02 00:50:27;;;;;;;10.13;9.13;;;;;;;13.36;60.42;95300.16;5065914;28;20457;-78
2022/01/02 00:52:57;;;;;;;10.93;9.83;;;;;;;13.08;61.61;95293.88;5070984;28;20427;-76
2022/01/02 00:55:24;;;;;;;9.60;8.67;;;;;;;13.51;60.52;95294.72;5089078;28;20439;-77
2022/01/02 00:57:57;;;;;;;9.67;8.67;;;;;;;13.37;60.48;95294.66;5071040;28;20416;-76
2022/01/02 01:00:23;;;;;;;12.50;9.07;;;;;;;13.54;59.72;95300.41;5089199;28;20416;-77
2022/01/02 01:02:53;;;;;;;9.30;8.40;;;;;;;13.29;60.36;95307.94;5126697;28;20777;-77
2022/01/02 01:05:24;;;;;;;9.70;8.70;;;;;;;13.01;60.77;95300.94;5130062;28;20455;-78
2022/01/02 01:08:02;;;;;;;7.90;6.97;;;;;;;13.04;61.59;95299.72;5129681;28;20518;-77
2022/01/02 01:10:33;;;;;;;8.93;8.03;;;;;;;13.00;61.34;95304.56;5129643;28;20470;-77
2022/01/02 01:13:01;;;;;;;7.67;6.87;;;;;;;13.12;61.20;95301.41;5129207;28;20514;-78
2022/01/02 01:15:29;;;;;;;9.60;8.67;;;;;;;13.62;58.79;95305.50;5125175;28;20519;-77
2022/01/02 01:17:56;;;;;;;8.80;8.00;;;;;;;13.23;59.89;95314.00;5090939;28;20925;-77
2022/01/02 01:20:25;;;;;;;10.10;9.20;;;;;;;13.27;60.11;95309.97;5109316;28;20411;-76
2022/01/02 01:22:50;;;;;;;8.67;7.77;;;;;;;13.14;60.23;95309.91;5087860;28;20442;-77
2022/01/02 01:25:18;;;;;;;7.70;6.90;;;;;;;12.98;60.77;95306.56;5109371;28;20419;-77
2022/01/02 01:27:45;;;;;;;10.27;9.20;;;;;;;13.38;60.10;95303.38;5105240;28;20196;-77
2022/01/02 01:30:12;;;;;;;8.47;7.57;;;;;;;13.45;59.82;95296.34;5077018;28;20439;-78
2022/01/02 01:32:38;;;;;;;8.27;7.57;;;;;;;13.30;60.02;95304.38;5089937;28;20439;-77
2022/01/02 01:35:05;;;;;;;8.60;7.80;;;;;;;13.29;59.89;95300.06;5108693;28;20533;-77
2022/01/02 01:37:31;;;;;;;8.67;7.87;;;;;;;13.60;59.17;95285.66;5108416;28;20189;-77
2022/01/02 01:39:57;;;;;;;8.33;7.53;;;;;;;13.23;59.90;95298.22;5108548;28;20415;-78
2022/01/02 01:42:36;;;;;;;8.57;7.50;;;;;;;13.27;60.11;95300.25;5081618;28;21016;-77
2022/01/02 01:47:52;;;;;;;8.23;7.43;;;;;;;13.09;60.26;95298.16;5096797;28;20441;-78
2022/01/02 01:50:19;;;;;;;6.53;5.97;;;;;;;13.28;59.58;95306.34;5108624;28;20576;-76
2022/01/02 01:52:45;;;;;;;8.53;6.60;;;;;;;13.10;60.34;95298.97;5107876;28;20426;-79
2022/01/02 01:55:11;;;;;;;7.40;6.80;;;;;;;13.23;59.64;95300.84;5108554;28;20450;-77
2022/01/02 01:57:41;;;;;;;8.07;7.33;;;;;;;13.36;58.51;95308.84;5089950;28;20184;-78
2022/01/02 02:00:10;;;;;;;6.03;5.63;;;;;;;12.73;60.62;95294.88;5108430;28;20425;-77
2022/01/02 02:02:37;;;;;;;7.87;7.17;;;;;;;13.01;59.62;95300.94;5107597;28;20411;-77
2022/01/02 02:05:03;;;;;;;7.13;6.50;;;;;;;12.87;60.46;95299.22;5107772;28;20495;-78
2022/01/02 02:07:38;;;;;;;6.27;5.67;;;;;;;12.72;61.41;95301.13;5103403;28;20431;-78
2022/01/02 02:10:17;;;;;;;9.73;7.77;;;;;;;13.51;59.04;95294.72;5069409;28;20423;-77
2022/01/02 02:12:45;;;;;;;8.20;7.50;;;;;;;13.04;59.87;95291.84;5087181;28;20463;-77
2022/01/02 02:15:13;;;;;;;9.20;7.80;;;;;;;13.43;59.07;95288.66;5085976;28;20431;-77
2022/01/02 02:17:39;;;;;;;8.53;7.83;;;;;;;13.17;59.01;95291.13;5088846;28;20522;-77
2022/01/02 02:20:11;;;;;;;9.07;8.33;;;;;;;13.07;59.55;95294.91;5089226;28;20490;-77
2022/01/02 02:22:42;;;;;;;7.70;7.10;;;;;;;13.09;59.75;95292.91;5089146;28;20191;-78
2022/01/02 02:25:10;;;;;;;6.80;6.30;;;;;;;12.93;60.67;95289.75;5107655;28;20431;-77
2022/01/02 02:27:35;;;;;;;8.37;7.63;;;;;;;13.17;59.88;95293.75;5107156;28;20403;-77
2022/01/02 02:30:01;;;;;;;7.23;6.53;;;;;;;12.99;60.57;95289.78;5107271;28;20423;-77
2022/01/02 02:32:27;;;;;;;9.47;8.47;;;;;;;13.41;59.30;95285.41;5089094;28;20267;-76
2022/01/02 02:34:52;;;;;;;10.00;8.97;;;;;;;13.18;59.14;95295.34;5089143;28;20438;-77
2022/01/02 02:37:18;;;;;;;8.90;8.10;;;;;;;13.38;59.07;95292.88;5106626;28;20191;-77
2022/01/02 02:39:43;;;;;;;8.80;7.67;;;;;;;13.22;59.07;95291.31;5088967;28;20193;-77
2022/01/02 02:42:22;;;;;;;8.10;7.30;;;;;;;13.20;59.71;95293.34;5088995;28;20177;-77
2022/01/02 02:44:57;;;;;;;8.40;7.70;;;;;;;13.16;59.31;95297.38;5105674;28;20673;-77
2022/01/02 02:50:23;;;;;;;9.20;8.30;;;;;;;13.61;58.39;95289.94;5004853;28;20483;-77
2022/01/02 02:52:48;;;;;;;9.10;8.20;;;;;;;13.59;57.95;95299.84;5069637;28;20419;-77
2022/01/02 02:55:14;;;;;;;9.40;8.50;;;;;;;13.41;58.51;95288.03;5105926;28;20193;-77
2022/01/02 02:57:39;;;;;;;9.17;8.40;;;;;;;13.47;58.72;95295.13;5106584;28;20173;-77
2022/01/02 03:00:06;;;;;;;7.87;7.17;;;;;;;13.19;59.70;95313.56;5105475;28;20193;-77
2022/01/02 03:02:31;;;;;;;8.50;7.80;;;;;;;13.55;58.26;95312.56;5100297;28;20185;-77
2022/01/02 03:04:56;;;;;;;7.67;6.87;;;;;;;13.65;57.19;95306.94;5105657;28;20518;-77
2022/01/02 03:07:22;;;;;;;9.00;8.20;;;;;;;13.60;57.78;95309.31;5088383;28;20244;-77
2022/01/02 03:09:50;;;;;;;8.60;7.70;;;;;;;13.74;57.39;95310.22;5106059;28;20187;-77
2022/01/02 03:12:16;;;;;;;7.57;6.87;;;;;;;13.81;56.80;95311.03;5103900;28;20243;-77
2022/01/02 03:14:59;;;;;;;8.90;7.70;;;;;;;13.66;57.28;95312.00;5106481;28;20431;-78
2022/01/02 03:17:25;;;;;;;9.63;6.47;;;;;;;13.39;58.04;95321.59;5106049;28;20203;-77
2022/01/02 03:19:50;;;;;;;6.33;5.83;;;;;;;13.31;58.51;95321.75;5105929;28;20419;-77
2022/01/02 03:22:16;;;;;;;7.90;7.20;;;;;;;13.82;57.11;95317.91;5105971;28;20204;-77
2022/01/02 03:24:41;;;;;;;7.93;7.23;;;;;;;13.78;57.11;95325.38;5105679;28;20192;-77
2022/01/02 03:27:07;;;;;;;8.93;8.00;;;;;;;13.56;57.36;95319.44;5106198;28;20180;-76
2022/01/02 03:29:32;;;;;;;7.90;7.20;;;;;;;13.43;58.01;95325.47;5105319;28;20192;-77
2022/01/02 03:31:57;;;;;;;8.20;7.40;;;;;;;13.69;57.28;95318.69;5087979;28;20205;-77
2022/01/02 03:34:23;;;;;;;8.03;7.23;;;;;;;13.44;57.55;95327.06;5105686;28;20173;-78
2022/01/02 03:36:48;;;;;;;9.27;7.20;;;;;;;13.56;57.07;95323.88;5086835;28;20682;-77
2022/01/02 03:39:14;;;;;;;8.50;7.50;;;;;;;13.74;57.14;95318.91;5087722;28;20186;-77
2022/01/02 03:41:39;;;;;;;8.93;8.03;;;;;;;13.43;57.67;95322.00;5078706;28;20169;-78
2022/01/02 03:44:05;;;;;;;7.53;6.83;;;;;;;13.61;58.03;95316.22;5087067;28;20195;-77
2022/01/02 03:46:30;;;;;;;7.87;7.03;;;;;;;13.74;57.03;95316.28;5105142;28;20177;-79
2022/01/02 03:48:56;;;;;;;7.60;7.00;;;;;;;13.17;59.12;95315.56;5095621;28;20196;-77
2022/01/02 03:51:21;;;;;;;7.70;6.63;;;;;;;12.96;59.54;95316.47;5077752;28;20201;-77
2022/01/02 03:53:47;;;;;;;7.80;7.20;;;;;;;13.20;58.96;95322.25;5080781;28;20242;-78
2022/01/02 03:56:12;;;;;;;8.50;7.70;;;;;;;13.06;59.56;95316.91;5105498;28;20180;-78
2022/01/02 03:58:38;;;;;;;8.50;7.80;;;;;;;13.10;59.21;95317.34;5086942;28;20472;-76
2022/01/02 04:01:03;;;;;;;8.47;7.67;;;;;;;12.83;60.61;95313.75;5086786;28;20204;-77
2022/01/02 04:03:29;;;;;;;7.87;7.17;;;;;;;13.43;58.52;95320.19;5105441;28;20165;-76
2022/01/02 04:05:54;;;;;;;8.77;7.90;;;;;;;13.31;59.33;95320.94;5104973;28;20185;-77
2022/01/02 04:08:19;;;;;;;8.37;7.43;;;;;;;12.85;59.72;95322.25;5105415;28;20229;-77
2022/01/02 04:10:45;;;;;;;9.07;8.27;;;;;;;13.29;58.92;95323.72;5083764;28;20636;-77
2022/01/02 04:13:10;;;;;;;8.30;7.60;;;;;;;13.24;59.84;95326.13;5085198;28;20209;-77
2022/01/02 04:15:36;;;;;;;9.33;8.00;;;;;;;13.20;59.22;95335.41;5093236;28;20218;-76
2022/01/02 04:18:02;;;;;;;7.47;6.87;;;;;;;12.88;60.17;95340.22;5104438;28;20207;-77
2022/01/02 04:20:27;;;;;;;9.90;8.90;;;;;;;13.14;59.52;95341.44;5087181;28;20191;-77
2022/01/02 04:22:53;;;;;;;7.17;5.67;;;;;;;12.53;60.94;95337.53;5105110;28;20580;-77
2022/01/02 04:25:18;;;;;;;6.70;6.03;;;;;;;12.90;60.75;95335.63;5105530;28;20651;-78
2022/01/02 04:27:44;;;;;;;8.90;8.07;;;;;;;13.11;60.34;95345.25;5092075;28;20204;-77
2022/01/02 04:30:12;;;;;;;7.67;6.97;;;;;;;12.79;61.23;95344.84;5083504;28;20232;-77
2022/01/02 04:32:37;;;;;;;8.40;7.53;;;;;;;12.96;60.86;95344.56;5085013;28;20181;-77
2022/01/02 04:35:04;;;;;;;8.87;8.00;;;;;;;13.04;60.83;95342.56;5084862;28;20432;-78
2022/01/02 04:37:29;;;;;;;8.90;7.33;;;;;;;13.04;60.32;95347.03;5094542;28;20169;-77
2022/01/02 04:39:55;;;;;;;9.20;7.60;;;;;;;13.43;58.93;95343.88;5098429;28;20446;-78
2022/01/02 04:42:20;;;;;;;7.67;6.87;;;;;;;12.86;60.62;95337.00;5105147;28;20611;-78
2022/01/02 04:44:46;;;;;;;8.47;7.53;;;;;;;13.17;60.12;95339.22;5104796;28;20227;-77
2022/01/02 04:47:11;;;;;;;8.83;8.10;;;;;;;13.41;59.49;95343.25;5086763;28;20245;-77
2022/01/02 04:49:37;;;;;;;7.90;7.20;;;;;;;13.08;60.25;95346.44;5104864;28;20200;-77
2022/01/02 04:52:02;;;;;;;5.70;5.10;;;;;;;12.64;61.60;95347.53;5087159;28;20251;-77
2022/01/02 04:54:28;;;;;;;7.53;6.93;;;;;;;12.92;61.34;95351.19;5086555;28;20197;-76
2022/01/02 04:56:53;;;;;;;8.73;7.93;;;;;;;13.05;60.79;95359.16;5104232;28;20208;-76
2022/01/02 04:59:19;;;;;;;8.70;7.73;;;;;;;13.08;61.11;95359.56;5086443;28;20185;-76
2022/01/02 05:01:44;;;;;;;8.33;7.57;;;;;;;13.12;59.90;95357.38;5097281;28;20176;-77
2022/01/02 05:04:11;;;;;;;9.33;8.50;;;;;;;13.31;60.11;95355.91;5125240;28;20176;-77
2022/01/02 05:06:37;;;;;;;8.17;7.27;;;;;;;12.64;61.87;95350.16;5119259;28;20660;-76
2022/01/02 05:09:03;;;;;;;10.30;8.23;;;;;;;12.79;61.96;95355.34;5086596;28;20468;-77
2022/01/02 05:11:28;;;;;;;8.30;7.50;;;;;;;13.03;60.56;95355.91;5104468;28;20197;-77
2022/01/02 05:13:54;;;;;;;6.60;5.93;;;;;;;12.62;61.96;95349.53;5086394;28;20246;-77
2022/01/02 05:16:19;;;;;;;9.27;8.27;;;;;;;13.02;60.96;95352.47;5083340;28;20185;-76
2022/01/02 05:18:45;;;;;;;7.73;6.93;;;;;;;13.23;60.19;95350.78;5084482;28;20177;-75
2022/01/02 05:21:10;;;;;;;8.77;8.03;;;;;;;13.23;60.43;95353.41;5084414;28;20177;-78
2022/01/02 05:23:36;;;;;;;8.33;7.63;;;;;;;13.44;59.66;95352.56;5066401;28;20246;-77
2022/01/02 05:26:01;;;;;;;8.63;7.83;;;;;;;12.88;61.35;95361.25;5067078;28;20190;-78
2022/01/02 05:28:27;;;;;;;8.20;7.23;;;;;;;12.96;61.30;95349.81;5107214;28;20173;-77
2022/01/02 05:30:52;;;;;;;7.73;7.03;;;;;;;12.88;61.70;95354.19;5108608;28;20205;-77
2022/01/02 05:33:18;;;;;;;8.60;7.80;;;;;;;13.10;60.80;95351.50;5089947;28;20193;-77
2022/01/02 05:35:43;;;;;;;8.63;7.93;;;;;;;13.38;59.53;95353.34;5108308;28;20183;-78
2022/01/02 05:38:09;;;;;;;9.00;8.27;;;;;;;13.39;60.02;95360.19;5089684;28;20562;-77
2022/01/02 05:40:35;;;;;;;9.53;8.03;;;;;;;13.56;59.37;95360.69;5108133;28;20192;-77
2022/01/02 05:43:05;;;;;;;8.47;7.77;;;;;;;13.51;59.14;95363.94;5089682;28;20181;-77
2022/01/02 05:45:32;;;;;;;8.90;8.00;;;;;;;13.38;59.74;95359.41;5108153;28;20278;-77
2022/01/02 05:47:58;;;;;;;9.13;8.33;;;;;;;13.45;58.75;95365.50;5107512;28;20435;-76
2022/01/02 05:50:24;;;;;;;7.43;6.73;;;;;;;12.64;61.65;95368.53;5107985;28;20430;-77
2022/01/02 05:52:49;;;;;;;9.40;7.47;;;;;;;13.18;60.52;95375.00;5108021;28;20416;-78
2022/01/02 05:55:15;;;;;;;7.83;7.13;;;;;;;13.30;59.65;95370.09;5107835;28;20450;-77
2022/01/02 05:57:40;;;;;;;10.00;7.90;;;;;;;13.36;60.10;95371.94;5095112;28;20208;-77
2022/01/02 06:00:07;;;;;;;9.17;8.37;;;;;;;13.28;60.29;95372.88;5087470;28;20193;-76
2022/01/02 06:02:32;;;;;;;9.60;7.00;;;;;;;13.19;60.37;95371.38;5089574;28;20189;-77
2022/01/02 06:04:59;;;;;;;8.90;7.63;;;;;;;13.58;58.52;95371.84;5106627;28;20928;-76
2022/01/02 06:07:24;;;;;;;7.93;7.13;;;;;;;13.57;58.72;95375.47;5106408;28;20188;-78
2022/01/02 06:09:50;;;;;;;8.80;7.23;;;;;;;13.56;58.92;95372.03;5097820;28;20435;-78
2022/01/02 06:12:16;;;;;;;8.27;7.47;;;;;;;13.72;58.70;95381.44;5112102;28;20216;-78
2022/01/02 06:14:42;;;;;;;8.60;7.80;;;;;;;13.05;60.22;95375.75;5105117;28;20189;-77
2022/01/02 06:17:07;;;;;;;8.73;7.97;;;;;;;13.21;60.35;95386.97;5102715;28;20189;-77
2022/01/02 06:19:33;;;;;;;9.00;8.10;;;;;;;13.39;59.21;95381.25;5085725;28;20264;-77
2022/01/02 06:22:00;;;;;;;8.80;7.30;;;;;;;13.38;60.12;95384.88;5106842;28;20169;-78
2022/01/02 06:24:25;;;;;;;9.60;8.60;;;;;;;13.26;60.26;95395.06;5106702;28;20245;-77
2022/01/02 06:26:51;;;;;;;8.37;7.57;;;;;;;13.27;59.49;95394.09;5106824;28;20415;-77
2022/01/02 06:29:16;;;;;;;6.83;6.23;;;;;;;13.07;59.17;95396.56;5106906;28;20195;-78
2022/01/02 06:31:42;;;;;;;7.70;7.00;;;;;;;13.25;59.80;95396.09;5107049;28;20615;-77
2022/01/02 06:34:07;;;;;;;7.93;7.20;;;;;;;13.22;59.84;95396.47;5107121;28;20217;-78
2022/01/02 06:36:33;;;;;;;5.67;5.17;;;;;;;12.81;60.48;95405.06;5106664;28;20177;-77
2022/01/02 06:38:58;;;;;;;7.70;7.00;;;;;;;13.02;60.91;95398.97;5105553;28;20185;-77
2022/01/02 06:41:24;;;;;;;7.80;7.03;;;;;;;12.99;60.92;95407.22;5106685;28;20184;-77
2022/01/02 06:43:52;;;;;;;7.60;6.90;;;;;;;12.81;60.79;95405.06;5088756;28;20181;-77
2022/01/02 06:46:18;;;;;;;6.90;6.40;;;;;;;13.33;58.93;95405.69;5106712;28;20181;-76
2022/01/02 06:48:44;;;;;;;7.30;6.70;;;;;;;13.33;59.70;95413.56;5088520;28;20917;-77
2022/01/02 06:51:10;;;;;;;7.00;6.43;;;;;;;12.97;60.75;95414.47;5096084;28;20459;-77
2022/01/02 06:53:35;;;;;;;7.03;6.43;;;;;;;13.45;59.32;95414.66;5093739;28;20189;-78
2022/01/02 06:56:00;;;;;;;6.17;5.67;;;;;;;13.27;59.56;95415.91;5100945;28;20185;-78
2022/01/02 06:58:29;;;;;;;6.73;6.20;;;;;;;12.95;60.49;95417.28;5106596;28;20190;-77
2022/01/02 07:00:56;;;;;;;7.00;6.20;;;;;;;13.63;57.83;95420.22;5088011;28;20224;-78
2022/01/02 07:03:22;;;;;;;7.60;5.90;;;;;;;13.23;59.26;95429.66;5106254;28;20449;-77
2022/01/02 07:05:48;;;;;;;6.93;6.40;;;;;;;13.38;59.00;95416.44;5106612;28;20423;-77
2022/01/02 07:08:14;;;;;;;6.47;5.97;;;;;;;13.63;58.41;95428.09;5105994;28;20422;-77
2022/01/02 07:10:39;;;;;;;7.50;6.80;;;;;;;13.56;58.59;95434.34;5106230;28;20462;-76
2022/01/02 07:13:05;;;;;;;6.10;5.40;;;;;;;13.57;58.81;95425.44;5105993;28;20230;-77
2022/01/02 07:15:30;;;;;;;6.23;5.73;;;;;;;13.16;59.45;95428.78;5105764;28;20192;-77
2022/01/02 07:17:56;;;;;;;6.37;5.87;;;;;;;13.62;58.38;95434.38;5105987;28;20179;-78
2022/01/02 07:20:21;;;;;;;6.60;6.10;;;;;;;13.64;58.38;95434.19;5087889;28;20185;-76
2022/01/02 07:22:47;;;;;;;7.10;6.40;;;;;;;13.64;57.64;95437.63;5087701;28;20798;-77
2022/01/02 07:25:13;;;;;;;6.67;5.90;;;;;;;13.57;58.30;95435.97;5087447;28;20185;-78
2022/01/02 07:27:39;;;;;;;9.53;6.20;;;;;;;13.45;59.28;95441.75;5080443;28;20798;-78
2022/01/02 07:30:07;;;;;;;7.43;6.83;;;;;;;13.57;59.09;95446.50;5105891;28;20427;-78
2022/01/02 07:32:33;;;;;;;6.60;5.97;;;;;;;13.72;58.62;95439.28;5087399;28;20200;-78
2022/01/02 07:34:58;;;;;;;7.40;6.63;;;;;;;13.96;57.58;95448.53;5102678;28;20508;-78
2022/01/02 07:37:24;;;;;;;7.10;6.17;;;;;;;13.71;58.15;95445.56;5084868;28;20188;-78
2022/01/02 07:39:49;;;;;;;6.47;5.87;;;;;;;14.12;56.64;95454.47;5094822;28;20189;-77
2022/01/02 07:42:14;;;;;;;7.30;6.60;;;;;;;14.09;57.31;95450.41;5105272;28;20245;-78
2022/01/02 07:44:40;;;;;;;7.90;7.20;;;;;;;14.05;56.61;95451.81;5091722;28;20196;-77
2022/01/02 07:47:06;;;;;;;6.60;6.00;;;;;;;13.70;58.48;95446.56;5085325;28;20174;-78
2022/01/02 07:49:31;;;;;;;6.43;5.93;;;;;;;14.24;56.83;95458.97;5066886;28;20190;-77
2022/01/02 07:51:57;;;;;;;7.77;7.07;;;;;;;13.94;57.30;95452.34;5085082;28;20481;-77
2022/01/02 07:54:22;;;;;;;6.50;5.90;;;;;;;13.41;59.08;95447.59;5093803;28;20350;-77
2022/01/02 07:56:48;;;;;;;7.83;7.13;;;;;;;14.03;57.56;95451.19;5105527;28;20185;-78
2022/01/02 07:59:13;;;;;;;7.23;6.70;;;;;;;13.81;57.77;95445.19;5087510;28;20192;-77
2022/01/02 08:01:39;;;;;;;6.27;5.77;;;;;;;13.61;58.88;95445.91;5114103;28;20687;-77
2022/01/02 08:04:04;;;;;;;7.23;6.67;;;;;;;13.63;58.33;95436.00;5119201;28;20192;-79
2022/01/02 08:06:30;;;;;;;6.23;5.70;;;;;;;14.09;57.49;95445.13;5105391;28;20181;-78
2022/01/02 08:08:55;;;;;;;7.43;6.93;;;;;;;13.92;57.71;95444.66;5105474;28;20169;-77
2022/01/02 08:11:21;;;;;;;7.37;6.70;;;;;;;14.12;57.34;95455.28;5105047;28;20583;-77
2022/01/02 08:13:47;;;;;;;7.27;6.73;;;;;;;14.28;56.49;95448.03;5087576;28;20211;-77
2022/01/02 08:16:13;;;;;;;8.50;7.70;;;;;;;14.24;56.17;95453.69;5087565;28;20411;-78
2022/01/02 08:18:42;;;;;;;7.87;7.07;;;;;;;14.32;56.05;95451.91;5104292;28;20188;-77
2022/01/02 08:21:08;;;;;;;6.90;5.67;;;;;;;14.23;56.20;95456.53;5087067;28;20177;-78
2022/01/02 08:23:34;;;;;;;7.30;5.83;;;;;;;13.52;57.76;95454.13;5105539;28;20411;-77
2022/01/02 08:26:00;;;;;;;5.70;5.17;;;;;;;13.13;59.49;95456.25;5087273;28;20446;-77
2022/01/02 08:28:26;;;;;;;7.33;6.63;;;;;;;13.69;57.82;95459.91;5105451;28;20410;-78
2022/01/02 08:30:51;;;;;;;6.87;6.37;;;;;;;13.97;56.75;95451.97;5086928;28;20526;-78
2022/01/02 08:33:17;;;;;;;7.10;5.70;;;;;;;13.89;57.25;95450.31;5105320;28;20181;-78
2022/01/02 08:35:44;;;;;;;6.40;5.90;;;;;;;14.27;56.06;95456.97;5105628;28;20185;-77
2022/01/02 08:38:11;;;;;;;6.80;5.70;;;;;;;13.96;56.37;95452.97;5104951;28;20411;-78
2022/01/02 08:40:37;;;;;;;7.70;7.00;;;;;;;13.90;56.84;95457.19;5086798;28;20415;-77
2022/01/02 08:43:03;;;;;;;6.57;5.90;;;;;;;14.52;54.98;95451.97;5105388;28;20406;-77
2022/01/02 08:45:28;;;;;;;6.43;5.90;;;;;;;14.86;54.70;95451.06;5070457;28;20454;-78
2022/01/02 08:47:54;;;;;;;5.93;5.33;;;;;;;14.99;53.34;95450.28;5067007;28;20185;-78
2022/01/02 08:50:19;;;;;;;5.73;5.33;;;;;;;15.36;51.88;95443.56;5066880;28;20204;-77
2022/01/02 08:52:45;;;;;;;5.80;5.30;;;;;;;14.69;53.72;95445.34;5085636;28;20182;-78
2022/01/02 08:55:10;;;;;;;5.47;4.97;;;;;;;14.80;52.96;95447.41;5105204;28;20189;-78
2022/01/02 08:57:36;;;;;;;5.97;5.23;;;;;;;15.41;51.14;95449.03;5087473;28;20181;-78
2022/01/02 09:00:02;;;;;;;5.07;4.67;;;;;;;15.06;52.02;95451.06;5105099;28;20181;-78
2022/01/02 09:02:28;;;;;;;5.40;5.00;;;;;;;15.33;51.06;95453.72;5088365;28;20192;-78
2022/01/02 09:04:53;;;;;;;5.77;5.37;;;;;;;14.92;51.92;95450.25;5109066;28;20434;-79
2022/01/02 09:07:18;;;;;;;4.03;3.73;;;;;;;15.45;50.05;95448.66;5091120;28;20273;-77
2022/01/02 09:09:44;;;;;;;5.20;4.77;;;;;;;15.66;50.11;95445.75;5109037;28;20185;-78
2022/01/02 09:12:12;;;;;;;5.73;5.07;;;;;;;15.08;51.25;95443.78;5108703;28;20244;-78
2022/01/02 09:14:37;;;;;;;5.60;5.10;;;;;;;15.60;50.13;95439.47;5093383;28;20443;-78
2022/01/02 09:17:03;;;;;;;4.77;4.43;;;;;;;14.60;52.39;95430.75;5088525;28;20416;-77
2022/01/02 09:19:28;;;;;;;6.63;4.60;;;;;;;15.16;51.36;95434.88;5088400;28;20185;-79
2022/01/02 09:21:54;;;;;;;6.03;5.53;;;;;;;15.42;50.90;95432.22;5088085;28;20180;-78
2022/01/02 09:24:19;;;;;;;5.70;5.30;;;;;;;15.62;50.07;95423.44;5080171;28;20181;-78
2022/01/02 09:26:45;;;;;;;4.53;4.13;;;;;;;16.22;48.91;95430.38;5088502;28;20174;-78
2022/01/02 09:29:10;;;;;;;4.50;4.20;;;;;;;16.31;48.40;95423.84;5070482;28;20190;-77
2022/01/02 09:31:36;;;;;;;4.87;4.47;;;;;;;16.48;47.15;95419.69;5070402;28;20237;-77
2022/01/02 09:34:01;;;;;;;3.90;3.60;;;;;;;16.09;48.35;95410.94;5098182;28;20204;-78
2022/01/02 09:36:27;;;;;;;4.40;4.17;;;;;;;16.46;47.63;95405.88;5108250;28;20184;-78
2022/01/02 09:38:54;;;;;;;7.57;4.60;;;;;;;16.72;46.81;95396.19;5089873;28;20181;-78
2022/01/02 09:41:20;;;;;;;4.60;4.20;;;;;;;15.76;48.89;95388.13;5107885;28;20541;-77
2022/01/02 09:43:50;;;;;;;4.13;3.83;;;;;;;16.19;48.47;95390.16;5090163;28;20415;-78
2022/01/02 09:46:25;;;;;;;4.30;4.00;;;;;;;15.83;49.24;95377.53;5089985;28;20580;-77
2022/01/02 09:48:52;;;;;;;3.73;3.43;;;;;;;15.06;50.85;95376.44;5090091;28;20463;-77
2022/01/02 09:51:19;;;;;;;4.13;3.80;;;;;;;15.54;49.34;95378.81;5089936;28;21001;-77
2022/01/02 09:53:46;;;;;;;4.73;4.33;;;;;;;16.14;48.16;95379.44;5107864;28;20445;-77
2022/01/02 09:56:12;;;;;;;5.23;4.80;;;;;;;15.95;48.39;95362.69;5107894;28;20431;-77
2022/01/02 09:58:40;;;;;;;4.40;4.00;;;;;;;15.46;49.45;95366.66;5107568;28;20411;-77
2022/01/02 10:01:06;;;;;;;4.77;4.37;;;;;;;15.97;48.86;95373.00;5107374;28;20767;-78
2022/01/02 10:03:41;;;;;;;5.70;5.07;;;;;;;16.27;48.47;95369.81;5107828;28;20506;-77
2022/01/02 10:06:07;;;;;;;3.93;3.67;;;;;;;16.33;47.98;95363.69;5089154;28;20199;-78
2022/01/02 10:08:34;;;;;;;3.80;3.50;;;;;;;16.30;47.65;95369.41;5107265;28;20407;-77
2022/01/02 10:11:25;;;;;;;4.77;3.83;;;;;;;16.48;47.15;95364.19;5107067;28;20315;-77
2022/01/02 10:13:53;;;;;;;3.23;2.80;;;;;;;16.02;47.47;95359.19;5088599;28;20510;-76
2022/01/02 10:16:34;;;;;;;4.80;4.40;;;;;;;16.73;46.94;95360.78;5088912;28;20450;-77
2022/01/02 10:19:29;;;;;;;4.87;3.80;;;;;;;16.57;47.07;95348.91;5107392;28;20407;-77
2022/01/02 10:22:00;;;;;;;4.47;4.07;;;;;;;16.57;45.96;95355.00;5106945;28;20419;-78
2022/01/02 10:24:27;;;;;;;4.20;3.83;;;;;;;16.50;46.57;95346.31;5109146;28;20502;-79
2022/01/02 10:27:13;;;;;;;3.87;3.33;;;;;;;16.74;45.78;95347.34;5127502;28;20425;-77
2022/01/02 10:29:46;;;;;;;3.27;3.07;;;;;;;16.91;45.66;95337.09;5089408;28;20423;-77
2022/01/02 10:32:34;;;;;;;3.60;3.40;;;;;;;17.29;44.59;95338.78;5088279;28;20473;-77
2022/01/02 10:35:10;;;;;;;3.50;3.30;;;;;;;16.84;45.46;95335.53;5086455;28;20416;-78
2022/01/02 10:37:36;;;;;;;4.17;3.77;;;;;;;17.16;44.95;95325.69;5086859;28;20407;-77
2022/01/02 10:40:02;;;;;;;3.30;3.10;;;;;;;16.59;45.75;95323.88;5086705;28;20449;-78
2022/01/02 10:42:28;;;;;;;3.30;3.00;;;;;;;16.69;45.43;95325.25;5089139;28;20184;-77
2022/01/02 10:44:54;;;;;;;2.93;2.63;;;;;;;16.01;47.31;95326.69;5088221;28;20419;-78
2022/01/02 10:47:24;;;;;;;3.07;2.87;;;;;;;16.82;45.83;95325.16;5106673;28;20505;-77
2022/01/02 10:50:04;;;;;;;2.67;2.47;;;;;;;16.84;45.32;95314.38;5106740;28;20177;-77
2022/01/02 10:52:42;;;;;;;2.63;2.43;;;;;;;17.12;44.54;95312.06;5088269;28;20459;-77
2022/01/02 10:55:16;;;;;;;3.20;2.90;;;;;;;17.75;43.21;95310.97;5106625;28;20488;-77
2022/01/02 10:57:42;;;;;;;3.37;3.07;;;;;;;17.77;42.89;95302.81;5101875;28;20449;-78
2022/01/02 11:00:10;;;;;;;3.03;2.83;;;;;;;18.09;41.99;95305.28;5085669;28;20867;-78
2022/01/02 11:02:38;;;;;;;2.87;2.67;;;;;;;17.72;42.65;95305.34;5106334;28;20836;-78
2022/01/02 11:05:10;;;;;;;3.17;2.90;;;;;;;17.81;43.04;95303.19;5086975;28;20461;-77
2022/01/02 11:07:50;;;;;;;3.70;3.40;;;;;;;17.37;43.88;95298.78;5087863;28;20439;-78
2022/01/02 11:10:18;;;;;;;3.33;3.13;;;;;;;18.01;42.53;95309.06;5087868;28;20429;-78
2022/01/02 11:12:45;;;;;;;3.30;3.00;;;;;;;18.61;41.33;95294.94;5105567;28;20466;-77
2022/01/02 11:15:16;;;;;;;4.37;3.20;;;;;;;18.24;41.54;95296.94;5106409;28;20427;-77
2022/01/02 11:17:42;;;;;;;3.53;2.87;;;;;;;17.26;43.74;95288.94;5091379;28;20399;-78
2022/01/02 11:20:22;;;;;;;3.33;3.00;;;;;;;17.21;43.56;95283.50;5109261;28;20905;-78
2022/01/02 11:22:54;;;;;;;2.63;2.47;;;;;;;17.61;43.14;95277.75;5108922;28;20380;-78
2022/01/02 11:25:38;;;;;;;2.60;2.40;;;;;;;17.46;43.00;95264.09;5090381;28;20443;-78
2022/01/02 11:28:13;;;;;;;3.70;3.47;;;;;;;17.89;42.09;95271.94;5106901;28;20399;-78
2022/01/02 11:30:41;;;;;;;4.40;3.77;;;;;;;18.72;41.31;95272.13;5106202;28;20538;-78
2022/01/02 11:33:09;;;;;;;3.47;3.20;;;;;;;18.39;42.00;95264.72;5088012;28;20415;-77
2022/01/02 11:35:40;;;;;;;3.33;3.03;;;;;;;18.39;41.81;95268.16;5105819;28;20438;-77
2022/01/02 11:38:06;;;;;;;2.90;2.70;;;;;;;18.61;41.91;95260.50;5106025;28;20433;-78
2022/01/02 11:40:53;;;;;;;3.80;3.50;;;;;;;18.37;42.17;95270.22;5106243;28;20422;-77